createdAt,value
2019-01-22T00:00:21.642Z,976.23
2019-01-22T00:01:21.863Z,976.24
2019-01-22T00:03:27.038Z,976.22
2019-01-22T00:04:27.281Z,976.21
2019-01-22T00:06:20.357Z,976.16
2019-01-22T00:07:20.576Z,976.20
2019-01-22T00:09:24.731Z,976.15
2019-01-22T00:10:24.977Z,976.17
2019-01-22T00:12:29.099Z,976.14
2019-01-22T00:13:29.333Z,976.06
2019-01-22T00:15:33.493Z,976.11
2019-01-22T00:16:33.738Z,976.05
2019-01-22T00:18:37.940Z,976.05
2019-01-22T00:19:38.175Z,976.07
2019-01-22T00:21:42.326Z,976.00
2019-01-22T00:22:42.556Z,976.01
2019-01-22T00:24:46.731Z,975.95
2019-01-22T00:25:46.947Z,975.97
2019-01-22T00:27:51.084Z,975.94
2019-01-22T00:28:51.315Z,975.90
2019-01-22T00:30:55.477Z,975.93
2019-01-22T00:31:55.699Z,975.91
2019-01-22T00:33:59.837Z,975.87
2019-01-22T00:35:00.099Z,975.90
2019-01-22T00:37:04.232Z,975.84
2019-01-22T00:38:04.464Z,975.85
2019-01-22T00:40:08.622Z,975.82
2019-01-22T00:41:08.851Z,975.78
2019-01-22T00:43:13.000Z,975.81
2019-01-22T00:44:13.222Z,975.81
2019-01-22T00:46:06.330Z,975.78
2019-01-22T00:47:06.558Z,975.71
2019-01-22T00:49:10.706Z,975.79
2019-01-22T00:50:10.939Z,975.73
2019-01-22T00:52:15.098Z,975.75
2019-01-22T00:53:15.321Z,975.72
2019-01-22T00:55:19.490Z,975.75
2019-01-22T00:56:19.719Z,975.70
2019-01-22T00:58:24.876Z,975.69
2019-01-22T00:59:25.121Z,975.69
2019-01-22T01:01:29.287Z,975.67
2019-01-22T01:02:29.519Z,975.62
2019-01-22T01:04:33.655Z,975.59
2019-01-22T01:05:33.885Z,975.64
2019-01-22T01:07:38.047Z,975.61
2019-01-22T01:08:38.279Z,975.61
2019-01-22T01:10:43.453Z,975.57
2019-01-22T01:11:43.685Z,975.55
2019-01-22T01:13:48.839Z,975.52
2019-01-22T01:14:49.070Z,975.56
2019-01-22T01:16:53.234Z,975.53
2019-01-22T01:17:53.462Z,975.46
2019-01-22T01:19:57.619Z,975.47
2019-01-22T01:20:57.852Z,975.48
2019-01-22T01:23:02.008Z,975.47
2019-01-22T01:24:02.242Z,975.49
2019-01-22T01:25:55.334Z,975.51
2019-01-22T01:26:55.561Z,975.49
2019-01-22T01:28:59.728Z,975.45
2019-01-22T01:29:59.954Z,975.47
2019-01-22T01:32:04.131Z,975.43
2019-01-22T01:33:04.364Z,975.45
2019-01-22T01:35:08.499Z,975.43
2019-01-22T01:36:08.737Z,975.41
2019-01-22T01:38:13.914Z,975.38
2019-01-22T01:39:14.137Z,975.38
2019-01-22T01:41:18.328Z,975.31
2019-01-22T01:42:18.537Z,975.32
2019-01-22T01:44:22.677Z,975.27
2019-01-22T01:45:22.924Z,975.24
2019-01-22T01:47:27.085Z,975.20
2019-01-22T01:48:27.316Z,975.17
2019-01-22T01:50:31.461Z,975.19
2019-01-22T01:51:31.688Z,975.14
2019-01-22T01:53:35.849Z,975.15
2019-01-22T01:54:36.075Z,975.14
2019-01-22T01:56:29.191Z,975.14
2019-01-22T01:57:29.413Z,975.11
2019-01-22T01:59:33.928Z,975.07
2019-01-22T02:00:34.157Z,975.06
2019-01-22T02:02:38.314Z,975.06
2019-01-22T02:03:38.543Z,975.08
2019-01-22T02:05:43.709Z,975.00
2019-01-22T02:06:43.942Z,974.94
2019-01-22T02:08:49.128Z,974.87
2019-01-22T02:09:49.341Z,974.85
2019-01-22T02:11:53.510Z,974.87
2019-01-22T02:12:53.730Z,974.82
2019-01-22T02:14:57.879Z,974.79
2019-01-22T02:15:58.120Z,974.74
2019-01-22T02:18:02.313Z,974.69
2019-01-22T02:19:02.505Z,974.70
2019-01-22T02:21:06.644Z,974.68
2019-01-22T02:22:06.875Z,974.67
2019-01-22T02:24:11.091Z,974.67
2019-01-22T02:25:11.272Z,974.65
2019-01-22T02:27:15.439Z,974.62
2019-01-22T02:28:15.675Z,974.59
2019-01-22T02:30:19.837Z,974.61
2019-01-22T02:31:20.073Z,974.58
2019-01-22T02:33:25.272Z,974.55
2019-01-22T02:34:25.503Z,974.55
2019-01-22T02:36:18.572Z,974.50
2019-01-22T02:37:18.808Z,974.48
2019-01-22T02:39:22.989Z,974.40
2019-01-22T02:40:23.189Z,974.35
2019-01-22T02:42:27.341Z,974.33
2019-01-22T02:43:27.570Z,974.33
2019-01-22T02:45:31.716Z,974.29
2019-01-22T02:46:31.943Z,974.26
2019-01-22T02:48:36.126Z,974.19
2019-01-22T02:49:36.359Z,974.21
2019-01-22T02:51:40.499Z,974.13
2019-01-22T02:52:40.725Z,974.10
2019-01-22T02:54:44.888Z,974.01
2019-01-22T02:55:45.119Z,974.02
2019-01-22T02:57:49.294Z,974.02
2019-01-22T02:58:49.515Z,973.99
2019-01-22T03:00:53.655Z,973.95
2019-01-22T03:01:53.883Z,973.96
2019-01-22T03:03:58.042Z,973.91
2019-01-22T03:04:58.260Z,973.87
2019-01-22T03:07:02.423Z,973.87
2019-01-22T03:08:02.656Z,973.86
2019-01-22T03:10:06.815Z,973.76
2019-01-22T03:11:07.037Z,973.75
2019-01-22T03:13:11.198Z,973.75
2019-01-22T03:14:11.424Z,973.75
2019-01-22T03:16:04.487Z,973.72
2019-01-22T03:17:04.721Z,973.69
2019-01-22T03:19:08.888Z,973.66
2019-01-22T03:20:09.116Z,973.61
2019-01-22T03:22:13.253Z,973.59
2019-01-22T03:23:13.480Z,973.56
2019-01-22T03:25:17.651Z,973.48
2019-01-22T03:26:17.882Z,973.48
2019-01-22T03:28:22.037Z,973.39
2019-01-22T03:29:22.269Z,973.43
2019-01-22T03:31:26.416Z,973.34
2019-01-22T03:32:26.655Z,973.33
2019-01-22T03:34:30.811Z,973.30
2019-01-22T03:35:31.044Z,973.31
2019-01-22T03:37:36.189Z,973.27
2019-01-22T03:38:36.421Z,973.28
2019-01-22T03:40:40.590Z,973.23
2019-01-22T03:41:40.812Z,973.20
2019-01-22T03:43:44.980Z,973.21
2019-01-22T03:44:45.208Z,973.26
2019-01-22T03:46:49.336Z,973.25
2019-01-22T03:47:49.565Z,973.25
2019-01-22T03:49:53.726Z,973.25
2019-01-22T03:50:53.956Z,973.23
2019-01-22T03:52:58.097Z,973.22
2019-01-22T03:53:58.327Z,973.21
2019-01-22T03:55:51.418Z,973.18
2019-01-22T03:56:51.648Z,973.16
2019-01-22T03:58:55.787Z,973.16
2019-01-22T03:59:56.019Z,973.09
2019-01-22T04:02:00.180Z,973.03
2019-01-22T04:03:00.401Z,973.00
2019-01-22T04:05:04.560Z,972.95
2019-01-22T04:06:04.809Z,972.97
2019-01-22T04:08:08.934Z,972.99
2019-01-22T04:09:09.166Z,972.96
2019-01-22T04:11:13.325Z,972.95
2019-01-22T04:12:13.554Z,972.94
2019-01-22T04:14:17.695Z,972.92
2019-01-22T04:15:17.945Z,972.93
2019-01-22T04:17:22.085Z,972.90
2019-01-22T04:18:22.316Z,972.85
2019-01-22T04:20:26.472Z,972.83
2019-01-22T04:21:26.692Z,972.85
2019-01-22T04:23:30.852Z,972.79
2019-01-22T04:24:31.084Z,972.79
2019-01-22T04:26:24.231Z,972.74
2019-01-22T04:27:24.874Z,972.75
2019-01-22T04:29:28.599Z,972.69
2019-01-22T04:30:28.852Z,972.75
2019-01-22T04:32:33.011Z,972.71
2019-01-22T04:33:33.243Z,972.68
2019-01-22T04:35:37.406Z,972.70
2019-01-22T04:36:37.638Z,972.66
2019-01-22T04:38:41.776Z,972.61
2019-01-22T04:39:42.007Z,972.58
2019-01-22T04:41:46.174Z,972.57
2019-01-22T04:42:46.402Z,972.57
2019-01-22T04:44:50.545Z,972.58
2019-01-22T04:45:50.772Z,972.50
2019-01-22T04:47:54.925Z,972.49
2019-01-22T04:48:55.162Z,972.46
2019-01-22T04:50:59.332Z,972.46
2019-01-22T04:51:59.555Z,972.48
2019-01-22T04:54:09.605Z,972.46
2019-01-22T04:55:03.928Z,972.43
2019-01-22T04:57:08.093Z,972.45
2019-01-22T04:58:08.315Z,972.50
2019-01-22T05:00:12.459Z,972.47
2019-01-22T05:01:12.691Z,972.41
2019-01-22T05:03:16.849Z,972.46
2019-01-22T05:04:17.079Z,972.47
2019-01-22T05:06:10.168Z,972.44
2019-01-22T05:07:10.397Z,972.47
2019-01-22T05:09:14.539Z,972.47
2019-01-22T05:10:14.771Z,972.51
2019-01-22T05:12:18.935Z,972.46
2019-01-22T05:13:19.193Z,972.45
2019-01-22T05:15:23.308Z,972.43
2019-01-22T05:16:23.538Z,972.44
2019-01-22T05:18:28.723Z,972.44
2019-01-22T05:19:28.959Z,972.43
2019-01-22T05:21:33.119Z,972.43
2019-01-22T05:22:33.340Z,972.45
2019-01-22T05:24:37.480Z,972.42
2019-01-22T05:25:37.717Z,972.40
2019-01-22T05:27:41.866Z,972.45
2019-01-22T05:28:42.094Z,972.42
2019-01-22T05:30:46.230Z,972.44
2019-01-22T05:31:46.458Z,972.43
2019-01-22T05:33:51.649Z,972.35
2019-01-22T05:34:51.881Z,972.32
2019-01-22T05:36:56.045Z,972.31
2019-01-22T05:37:56.278Z,972.34
2019-01-22T05:40:01.434Z,972.30
2019-01-22T05:41:01.666Z,972.32
2019-01-22T05:43:06.905Z,972.32
2019-01-22T05:44:07.127Z,972.29
2019-01-22T05:46:00.205Z,972.32
2019-01-22T05:47:00.440Z,972.36
2019-01-22T05:49:04.599Z,972.36
2019-01-22T05:50:04.827Z,972.29
2019-01-22T05:52:08.984Z,972.29
2019-01-22T05:53:09.210Z,972.29
2019-01-22T05:55:13.348Z,972.26
2019-01-22T05:56:13.581Z,972.26
2019-01-22T05:58:18.770Z,972.27
2019-01-22T05:59:19.000Z,972.19
2019-01-22T06:01:23.148Z,972.16
2019-01-22T06:02:23.357Z,972.13
2019-01-22T06:04:28.539Z,972.12
2019-01-22T06:05:28.791Z,972.14
2019-01-22T06:07:32.947Z,972.09
2019-01-22T06:08:33.177Z,972.08
2019-01-22T06:10:37.315Z,972.07
2019-01-22T06:11:37.545Z,972.12
2019-01-22T06:13:41.703Z,972.09
2019-01-22T06:14:41.952Z,972.11
2019-01-22T06:16:36.028Z,972.03
2019-01-22T06:17:36.240Z,972.04
2019-01-22T06:19:40.397Z,971.99
2019-01-22T06:20:40.623Z,971.97
2019-01-22T06:22:44.760Z,971.93
2019-01-22T06:23:44.986Z,971.91
2019-01-22T06:25:49.731Z,971.93
2019-01-22T06:26:49.382Z,971.85
2019-01-22T06:28:53.685Z,971.80
2019-01-22T06:29:53.792Z,971.76
2019-01-22T06:31:57.911Z,971.81
2019-01-22T06:32:58.137Z,971.77
2019-01-22T06:35:02.301Z,971.76
2019-01-22T06:36:02.538Z,971.74
2019-01-22T06:38:06.670Z,971.70
2019-01-22T06:39:06.900Z,971.69
2019-01-22T06:41:11.058Z,971.69
2019-01-22T06:42:11.288Z,971.67
2019-01-22T06:44:15.445Z,971.67
2019-01-22T06:45:15.677Z,971.64
2019-01-22T06:47:19.810Z,971.68
2019-01-22T06:48:20.045Z,971.65
2019-01-22T06:50:24.201Z,971.64
2019-01-22T06:51:24.434Z,971.66
2019-01-22T06:53:28.572Z,971.64
2019-01-22T06:54:28.806Z,971.68
2019-01-22T06:56:21.894Z,971.70
2019-01-22T06:57:22.130Z,971.68
2019-01-22T06:59:26.952Z,971.67
2019-01-22T07:00:26.511Z,971.70
2019-01-22T07:02:30.651Z,971.72
2019-01-22T07:03:30.882Z,971.70
2019-01-22T07:05:35.043Z,971.70
2019-01-22T07:06:35.277Z,971.69
2019-01-22T07:08:39.407Z,971.68
2019-01-22T07:09:39.641Z,971.68
2019-01-22T07:11:43.796Z,971.67
2019-01-22T07:12:44.029Z,971.63
2019-01-22T07:14:48.195Z,971.70
2019-01-22T07:15:48.431Z,971.64
2019-01-22T07:17:52.565Z,971.65
2019-01-22T07:18:52.801Z,971.64
2019-01-22T07:20:56.959Z,971.69
2019-01-22T07:21:57.191Z,971.71
2019-01-22T07:24:01.327Z,971.68
2019-01-22T07:25:04.727Z,971.69
2019-01-22T07:27:05.711Z,971.80
2019-01-22T07:28:05.949Z,971.82
2019-01-22T07:30:10.116Z,971.78
2019-01-22T07:31:10.343Z,971.79
2019-01-22T07:33:14.482Z,971.72
2019-01-22T07:34:14.712Z,971.71
2019-01-22T07:36:08.810Z,971.72
2019-01-22T07:37:09.042Z,971.68
2019-01-22T07:39:13.175Z,971.65
2019-01-22T07:40:13.413Z,971.68
2019-01-22T07:42:17.567Z,971.65
2019-01-22T07:43:17.795Z,971.66
2019-01-22T07:45:21.948Z,971.61
2019-01-22T07:46:22.179Z,971.62
2019-01-22T07:48:26.315Z,971.60
2019-01-22T07:49:26.547Z,971.54
2019-01-22T07:51:31.195Z,971.57
2019-01-22T07:52:31.436Z,971.53
2019-01-22T07:54:35.568Z,971.59
2019-01-22T07:55:35.798Z,971.58
2019-01-22T07:57:39.952Z,971.60
2019-01-22T07:58:40.301Z,971.64
2019-01-22T08:00:44.460Z,971.58
2019-01-22T08:01:44.692Z,971.61
2019-01-22T08:03:48.841Z,971.64
2019-01-22T08:04:49.076Z,971.60
2019-01-22T08:06:53.232Z,971.76
2019-01-22T08:07:53.462Z,972.02
2019-01-22T08:09:57.610Z,972.37
2019-01-22T08:10:57.830Z,972.67
2019-01-22T08:13:01.994Z,973.17
2019-01-22T08:14:02.230Z,973.44
2019-01-22T08:15:55.319Z,973.50
2019-01-22T08:16:55.557Z,973.43
2019-01-22T08:18:59.690Z,973.50
2019-01-22T08:19:59.926Z,973.70
2019-01-22T08:22:04.090Z,973.76
2019-01-22T08:23:04.324Z,973.82
2019-01-22T08:25:08.460Z,973.90
2019-01-22T08:26:08.694Z,974.07
2019-01-22T08:28:12.855Z,974.24
2019-01-22T08:29:13.085Z,974.45
2019-01-22T08:31:17.242Z,973.95
2019-01-22T08:32:17.524Z,974.30
2019-01-22T08:34:21.620Z,974.05
2019-01-22T08:35:21.852Z,974.19
2019-01-22T08:37:26.014Z,974.01
2019-01-22T08:38:26.244Z,972.84
2019-01-22T08:40:30.393Z,971.89
2019-01-22T08:41:30.641Z,971.86
2019-01-22T08:43:34.789Z,971.69
2019-01-22T08:44:35.023Z,971.69
2019-01-22T08:46:28.092Z,971.65
2019-01-22T08:47:28.332Z,971.69
2019-01-22T08:49:32.582Z,971.64
2019-01-22T08:50:32.817Z,971.65
2019-01-22T08:52:36.971Z,971.60
2019-01-22T08:53:37.204Z,971.57
2019-01-22T08:55:41.334Z,971.58
2019-01-22T08:56:41.568Z,971.58
2019-01-22T08:58:45.739Z,971.54
2019-01-22T08:59:45.972Z,971.52
2019-01-22T09:01:50.110Z,971.47
2019-01-22T09:02:50.347Z,971.47
2019-01-22T09:04:54.504Z,971.48
2019-01-22T09:05:54.742Z,971.46
2019-01-22T09:07:58.904Z,971.42
2019-01-22T09:08:59.138Z,971.42
2019-01-22T09:11:03.277Z,971.39
2019-01-22T09:12:03.512Z,971.41
2019-01-22T09:14:07.672Z,971.35
2019-01-22T09:15:07.907Z,971.33
2019-01-22T09:17:12.045Z,971.30
2019-01-22T09:18:12.283Z,971.35
2019-01-22T09:20:16.456Z,971.29
2019-01-22T09:21:16.694Z,971.32
2019-01-22T09:23:20.855Z,971.30
2019-01-22T09:24:21.096Z,971.30
2019-01-22T09:26:14.179Z,971.29
2019-01-22T09:27:14.406Z,971.25
2019-01-22T09:29:19.808Z,971.24
2019-01-22T09:30:20.026Z,971.23
2019-01-22T09:32:24.176Z,971.23
2019-01-22T09:33:24.459Z,971.23
2019-01-22T09:35:17.783Z,971.20
2019-01-22T09:36:18.014Z,971.18
2019-01-22T09:38:22.175Z,971.22
2019-01-22T09:39:22.412Z,971.15
2019-01-22T09:41:26.555Z,971.17
2019-01-22T09:42:26.791Z,971.17
2019-01-22T09:44:30.951Z,971.15
2019-01-22T09:45:31.182Z,971.18
2019-01-22T09:47:35.325Z,971.18
2019-01-22T09:48:35.559Z,971.15
2019-01-22T09:50:39.718Z,971.16
2019-01-22T09:51:39.951Z,971.17
2019-01-22T09:53:44.108Z,971.15
2019-01-22T09:54:44.342Z,971.16
2019-01-22T09:56:37.414Z,971.12
2019-01-22T09:57:37.644Z,971.16
2019-01-22T09:59:41.810Z,971.11
2019-01-22T10:00:42.041Z,971.13
2019-01-22T10:02:46.182Z,971.07
2019-01-22T10:03:46.460Z,971.10
2019-01-22T10:05:50.577Z,971.05
2019-01-22T10:06:50.808Z,971.04
2019-01-22T10:08:54.967Z,971.07
2019-01-22T10:09:55.200Z,971.06
2019-01-22T10:11:59.342Z,971.04
2019-01-22T10:12:59.574Z,971.05
2019-01-22T10:15:03.748Z,971.09
2019-01-22T10:16:03.980Z,971.19
2019-01-22T10:18:08.122Z,971.10
2019-01-22T10:19:08.353Z,971.16
2019-01-22T10:21:12.531Z,971.16
2019-01-22T10:22:12.756Z,971.16
2019-01-22T10:24:16.925Z,971.24
2019-01-22T10:25:17.156Z,971.22
2019-01-22T10:27:21.297Z,971.10
2019-01-22T10:28:21.529Z,971.08
2019-01-22T10:30:25.694Z,971.26
2019-01-22T10:31:25.928Z,971.28
2019-01-22T10:33:30.080Z,971.31
2019-01-22T10:34:30.315Z,971.48
2019-01-22T10:36:23.410Z,971.37
2019-01-22T10:37:23.645Z,971.61
2019-01-22T10:39:27.824Z,971.54
2019-01-22T10:40:28.060Z,971.59
2019-01-22T10:42:32.215Z,971.60
2019-01-22T10:43:32.454Z,971.55
2019-01-22T10:45:36.629Z,971.59
2019-01-22T10:46:36.867Z,971.55
2019-01-22T10:48:41.020Z,971.43
2019-01-22T10:49:41.262Z,971.22
2019-01-22T10:51:45.433Z,971.30
2019-01-22T10:52:45.673Z,971.06
2019-01-22T10:54:49.853Z,971.28
2019-01-22T10:55:50.090Z,971.32
2019-01-22T10:57:54.242Z,971.31
2019-01-22T10:58:54.480Z,971.25
2019-01-22T11:00:58.656Z,971.07
2019-01-22T11:01:58.896Z,970.75
2019-01-22T11:04:03.053Z,970.74
2019-01-22T11:05:03.294Z,970.71
2019-01-22T11:07:07.469Z,970.59
2019-01-22T11:08:07.711Z,970.48
2019-01-22T11:10:11.888Z,970.45
2019-01-22T11:11:12.128Z,970.43
2019-01-22T11:13:16.287Z,970.37
2019-01-22T11:14:16.527Z,970.30
2019-01-22T11:16:09.626Z,970.19
2019-01-22T11:17:09.865Z,970.15
2019-01-22T11:19:14.015Z,970.11
2019-01-22T11:20:14.250Z,970.06
2019-01-22T11:22:18.421Z,970.04
2019-01-22T11:23:18.659Z,969.99
2019-01-22T11:25:22.836Z,969.97
2019-01-22T11:26:23.073Z,969.95
2019-01-22T11:28:27.225Z,969.86
2019-01-22T11:29:27.460Z,969.89
2019-01-22T11:31:31.632Z,969.83
2019-01-22T11:32:31.866Z,969.77
2019-01-22T11:34:36.011Z,969.78
2019-01-22T11:35:36.246Z,969.73
2019-01-22T11:37:40.408Z,969.67
2019-01-22T11:38:40.641Z,969.62
2019-01-22T11:40:44.810Z,969.57
2019-01-22T11:41:45.044Z,969.60
2019-01-22T11:43:49.186Z,969.44
2019-01-22T11:44:49.419Z,969.46
2019-01-22T11:46:53.582Z,969.47
2019-01-22T11:47:53.818Z,969.42
2019-01-22T11:49:57.959Z,969.37
2019-01-22T11:50:58.206Z,969.32
2019-01-22T11:53:02.361Z,969.25
2019-01-22T11:54:02.595Z,969.24
2019-01-22T11:55:55.667Z,969.20
2019-01-22T11:56:55.899Z,969.23
2019-01-22T11:59:00.075Z,969.18
2019-01-22T12:00:00.302Z,969.08
2019-01-22T12:02:04.466Z,969.12
2019-01-22T12:03:04.697Z,969.10
2019-01-22T12:05:08.839Z,969.03
2019-01-22T12:06:09.073Z,969.04
2019-01-22T12:08:13.235Z,968.95
2019-01-22T12:09:13.470Z,968.96
2019-01-22T12:11:17.618Z,968.93
2019-01-22T12:12:17.848Z,968.92
2019-01-22T12:14:22.017Z,968.87
2019-01-22T12:15:22.251Z,968.85
2019-01-22T12:17:26.410Z,968.84
2019-01-22T12:18:26.642Z,968.80
2019-01-22T12:20:30.785Z,968.78
2019-01-22T12:21:31.016Z,968.77
2019-01-22T12:23:35.381Z,968.74
2019-01-22T12:24:35.616Z,968.68
2019-01-22T12:26:28.688Z,968.68
2019-01-22T12:27:28.919Z,968.63
2019-01-22T12:29:33.088Z,968.60
2019-01-22T12:30:33.317Z,968.56
2019-01-22T12:32:37.479Z,968.52
2019-01-22T12:33:37.714Z,968.50
2019-01-22T12:35:41.851Z,968.50
2019-01-22T12:36:42.084Z,968.48
2019-01-22T12:38:46.256Z,968.43
2019-01-22T12:39:46.490Z,968.47
2019-01-22T12:41:50.628Z,968.44
2019-01-22T12:42:50.863Z,968.44
2019-01-22T12:44:55.028Z,968.37
2019-01-22T12:45:55.257Z,968.36
2019-01-22T12:47:59.419Z,968.25
2019-01-22T12:48:59.653Z,968.26
2019-01-22T12:51:03.801Z,968.25
2019-01-22T12:52:04.035Z,968.19
2019-01-22T12:54:08.205Z,968.18
2019-01-22T12:55:08.437Z,968.14
2019-01-22T12:57:12.578Z,968.09
2019-01-22T12:58:12.809Z,968.18
2019-01-22T13:00:16.976Z,968.10
2019-01-22T13:01:17.210Z,968.12
2019-01-22T13:03:21.369Z,968.03
2019-01-22T13:04:21.603Z,968.02
2019-01-22T13:06:14.680Z,968.01
2019-01-22T13:07:14.915Z,967.99
2019-01-22T13:09:19.083Z,967.99
2019-01-22T13:10:19.318Z,968.03
2019-01-22T13:12:24.077Z,967.98
2019-01-22T13:13:23.705Z,967.95
2019-01-22T13:15:27.855Z,967.90
2019-01-22T13:16:28.091Z,967.83
2019-01-22T13:18:32.262Z,967.88
2019-01-22T13:19:32.498Z,967.83
2019-01-22T13:21:37.659Z,967.79
2019-01-22T13:22:37.897Z,967.82
2019-01-22T13:24:42.069Z,967.76
2019-01-22T13:25:42.304Z,967.72
2019-01-22T13:27:46.456Z,967.68
2019-01-22T13:28:46.691Z,967.62
2019-01-22T13:30:50.871Z,967.60
2019-01-22T13:31:51.107Z,967.56
2019-01-22T13:33:55.279Z,967.47
2019-01-22T13:34:55.515Z,967.45
2019-01-22T13:36:59.661Z,967.50
2019-01-22T13:37:59.890Z,967.42
2019-01-22T13:40:04.058Z,967.37
2019-01-22T13:41:04.305Z,967.33
2019-01-22T13:43:08.463Z,967.33
2019-01-22T13:44:08.698Z,967.27
2019-01-22T13:46:01.776Z,967.25
2019-01-22T13:47:02.011Z,967.23
2019-01-22T13:49:06.180Z,967.21
2019-01-22T13:50:06.413Z,967.18
2019-01-22T13:52:10.564Z,967.16
2019-01-22T13:53:10.795Z,967.17
2019-01-22T13:55:14.966Z,967.08
2019-01-22T13:56:18.577Z,967.02
2019-01-22T13:58:19.634Z,967.01
2019-01-22T13:59:19.639Z,967.00
2019-01-22T14:01:23.780Z,967.01
2019-01-22T14:02:24.016Z,966.98
2019-01-22T14:04:28.179Z,966.93
2019-01-22T14:05:28.849Z,966.92
2019-01-22T14:07:32.553Z,966.94
2019-01-22T14:08:32.790Z,966.89
2019-01-22T14:10:36.965Z,966.87
2019-01-22T14:11:37.199Z,966.84
2019-01-22T14:13:41.392Z,966.79
2019-01-22T14:14:41.655Z,966.78
2019-01-22T14:16:34.726Z,966.79
2019-01-22T14:17:34.961Z,966.74
2019-01-22T14:19:39.121Z,966.66
2019-01-22T14:20:39.410Z,966.65
2019-01-22T14:22:43.557Z,966.64
2019-01-22T14:23:43.790Z,966.61
2019-01-22T14:25:47.958Z,966.55
2019-01-22T14:26:48.191Z,966.57
2019-01-22T14:28:52.365Z,966.61
2019-01-22T14:29:52.671Z,966.57
2019-01-22T14:31:56.841Z,966.56
2019-01-22T14:32:57.126Z,966.54
2019-01-22T14:35:01.294Z,966.47
2019-01-22T14:36:01.533Z,966.51
2019-01-22T14:38:05.703Z,966.49
2019-01-22T14:39:05.936Z,966.44
2019-01-22T14:41:10.159Z,966.41
2019-01-22T14:42:10.432Z,966.38
2019-01-22T14:44:14.600Z,966.33
2019-01-22T14:45:14.830Z,966.35
2019-01-22T14:47:18.992Z,966.35
2019-01-22T14:48:19.222Z,966.35
2019-01-22T14:50:23.435Z,966.33
2019-01-22T14:51:23.694Z,966.37
2019-01-22T14:53:27.860Z,966.35
2019-01-22T14:54:28.098Z,966.31
2019-01-22T14:56:21.238Z,966.38
2019-01-22T14:57:21.611Z,966.33
2019-01-22T14:59:25.598Z,966.33
2019-01-22T15:00:25.847Z,966.29
2019-01-22T15:02:30.046Z,966.24
2019-01-22T15:03:30.280Z,966.21
2019-01-22T15:05:34.435Z,966.20
2019-01-22T15:06:34.670Z,966.18
2019-01-22T15:08:38.809Z,966.16
2019-01-22T15:09:39.041Z,966.18
2019-01-22T15:11:43.204Z,966.17
2019-01-22T15:12:43.484Z,966.21
2019-01-22T15:14:47.574Z,966.10
2019-01-22T15:15:47.811Z,966.14
2019-01-22T15:17:51.971Z,966.13
2019-01-22T15:18:52.208Z,966.09
2019-01-22T15:20:56.370Z,966.09
2019-01-22T15:21:56.607Z,966.10
2019-01-22T15:24:00.755Z,966.01
2019-01-22T15:25:00.992Z,965.97
2019-01-22T15:27:05.159Z,965.95
2019-01-22T15:28:05.392Z,965.93
2019-01-22T15:30:09.544Z,965.91
2019-01-22T15:31:09.771Z,965.87
2019-01-22T15:33:13.931Z,965.87
2019-01-22T15:34:14.163Z,965.84
2019-01-22T15:36:07.254Z,965.84
2019-01-22T15:37:07.486Z,965.82
2019-01-22T15:39:11.628Z,965.79
2019-01-22T15:40:11.866Z,965.79
2019-01-22T15:42:16.024Z,965.74
2019-01-22T15:43:16.255Z,965.76
2019-01-22T15:45:20.408Z,965.74
2019-01-22T15:46:20.628Z,965.73
2019-01-22T15:48:24.785Z,965.68
2019-01-22T15:49:25.018Z,965.65
2019-01-22T15:51:29.178Z,965.65
2019-01-22T15:52:29.402Z,965.68
2019-01-22T15:54:33.542Z,965.67
2019-01-22T15:55:33.772Z,965.64
2019-01-22T15:57:37.931Z,965.57
2019-01-22T15:58:38.161Z,965.60
2019-01-22T16:00:42.321Z,965.53
2019-01-22T16:01:42.559Z,965.52
2019-01-22T16:03:46.695Z,965.51
2019-01-22T16:04:46.929Z,965.48
2019-01-22T16:06:51.087Z,965.40
2019-01-22T16:07:51.324Z,965.44
2019-01-22T16:09:55.463Z,965.45
2019-01-22T16:10:55.699Z,965.43
2019-01-22T16:12:59.862Z,965.48
2019-01-22T16:14:00.134Z,965.50
2019-01-22T16:15:53.234Z,965.55
2019-01-22T16:16:53.470Z,965.49
2019-01-22T16:18:57.608Z,965.51
2019-01-22T16:19:57.843Z,965.51
2019-01-22T16:22:02.008Z,965.48
2019-01-22T16:23:02.236Z,965.42
2019-01-22T16:25:06.405Z,965.44
2019-01-22T16:26:06.698Z,965.44
2019-01-22T16:28:10.855Z,965.36
2019-01-22T16:29:11.085Z,965.44
2019-01-22T16:31:15.285Z,965.39
2019-01-22T16:32:15.556Z,965.41
2019-01-22T16:34:19.696Z,965.42
2019-01-22T16:35:19.927Z,965.37
2019-01-22T16:37:25.168Z,965.33
2019-01-22T16:38:25.393Z,965.31
2019-01-22T16:40:29.581Z,965.28
2019-01-22T16:41:29.810Z,965.27
2019-01-22T16:43:33.964Z,965.28
2019-01-22T16:44:34.196Z,965.30
2019-01-22T16:46:27.294Z,965.26
2019-01-22T16:47:27.523Z,965.24
2019-01-22T16:49:31.770Z,965.24
2019-01-22T16:50:32.070Z,965.28
2019-01-22T16:52:36.287Z,965.30
2019-01-22T16:53:36.561Z,965.27
2019-01-22T16:55:40.703Z,965.24
2019-01-22T16:56:41.024Z,965.25
2019-01-22T16:58:45.133Z,965.25
2019-01-22T16:59:45.364Z,965.19
2019-01-22T17:01:49.509Z,965.16
2019-01-22T17:02:49.739Z,965.20
2019-01-22T17:04:53.902Z,965.11
2019-01-22T17:05:54.133Z,965.14
2019-01-22T17:07:58.291Z,965.11
2019-01-22T17:08:58.521Z,965.17
2019-01-22T17:11:02.653Z,965.09
2019-01-22T17:12:02.884Z,965.08
2019-01-22T17:14:07.044Z,965.13
2019-01-22T17:15:07.271Z,965.13
2019-01-22T17:17:11.405Z,965.12
2019-01-22T17:18:11.670Z,965.11
2019-01-22T17:20:17.388Z,965.09
2019-01-22T17:21:16.025Z,965.08
2019-01-22T17:23:20.178Z,965.07
2019-01-22T17:24:20.412Z,965.05
2019-01-22T17:26:13.527Z,965.02
2019-01-22T17:27:13.742Z,965.03
2019-01-22T17:29:17.900Z,964.98
2019-01-22T17:30:18.135Z,964.97
2019-01-22T17:32:22.298Z,964.98
2019-01-22T17:33:22.527Z,964.96
2019-01-22T17:35:26.681Z,964.96
2019-01-22T17:36:26.912Z,964.93
2019-01-22T17:38:31.124Z,964.92
2019-01-22T17:39:31.357Z,964.89
2019-01-22T17:41:35.485Z,964.89
2019-01-22T17:42:35.710Z,964.87
2019-01-22T17:44:39.873Z,964.86
2019-01-22T17:45:40.102Z,964.87
2019-01-22T17:47:44.231Z,964.86
2019-01-22T17:48:44.567Z,964.86
2019-01-22T17:50:49.733Z,964.85
2019-01-22T17:51:49.963Z,964.81
2019-01-22T17:53:54.113Z,964.78
2019-01-22T17:54:54.349Z,964.77
2019-01-22T17:56:58.486Z,964.74
2019-01-22T17:57:58.802Z,964.68
2019-01-22T18:00:02.987Z,964.69
2019-01-22T18:01:03.229Z,964.69
2019-01-22T18:03:07.372Z,964.68
2019-01-22T18:04:07.637Z,964.62
2019-01-22T18:06:00.725Z,964.63
2019-01-22T18:07:00.964Z,964.59
2019-01-22T18:09:05.198Z,964.61
2019-01-22T18:10:05.448Z,964.57
2019-01-22T18:12:09.618Z,964.58
2019-01-22T18:13:09.889Z,964.58
2019-01-22T18:15:14.105Z,964.50
2019-01-22T18:16:14.371Z,964.48
2019-01-22T18:18:18.541Z,964.46
2019-01-22T18:19:23.772Z,964.48
2019-01-22T18:21:22.944Z,964.44
2019-01-22T18:22:23.181Z,964.42
2019-01-22T18:24:27.396Z,964.40
2019-01-22T18:25:27.626Z,964.36
2019-01-22T18:27:31.773Z,964.38
2019-01-22T18:28:32.009Z,964.34
2019-01-22T18:30:36.248Z,964.28
2019-01-22T18:31:36.478Z,964.25
2019-01-22T18:33:40.611Z,964.24
2019-01-22T18:34:40.842Z,964.23
2019-01-22T18:36:33.935Z,964.22
2019-01-22T18:37:34.168Z,964.21
2019-01-22T18:39:38.335Z,964.19
2019-01-22T18:40:38.567Z,964.22
2019-01-22T18:42:42.719Z,964.14
2019-01-22T18:43:42.954Z,964.15
2019-01-22T18:45:47.113Z,964.10
2019-01-22T18:46:47.346Z,964.14
2019-01-22T18:48:51.487Z,964.07
2019-01-22T18:49:51.721Z,964.09
2019-01-22T18:51:55.887Z,964.08
2019-01-22T18:52:56.122Z,964.06
2019-01-22T18:55:00.287Z,964.03
2019-01-22T18:56:00.520Z,964.05
2019-01-22T18:58:04.661Z,964.07
2019-01-22T18:59:04.891Z,964.02
2019-01-22T19:01:09.056Z,963.96
2019-01-22T19:02:09.287Z,963.94
2019-01-22T19:04:13.433Z,963.95